KMOD/MOD METAR and TAF weather

Enter ICAO airport designator
Station Type Date Time Source
KMOD METAR 2020/09/18 06:53 UTC NOAA

KMOD 180653Z AUTO 36007KT 10SM CLR 23/13 A2992 RMK AO2 SLP131 T02280133


Station Type Date Time Source
KMOD Decoded METAR 2020/09/18 06:53 UTC NOAA

MODESTO CITY CO SHAM FLD, CA, United States (KMOD) 37-37N 120-57W 29M
Sep 18, 2020 - 02:53 AM EDT / 2020.09.18 0653 UTC
Wind: from the N (360 degrees) at 8 MPH (7 KT):0
Visibility: 10 mile(s):0
Sky conditions: clear
Temperature: 73.0 F (22.8 C)
Dew Point: 55.9 F (13.3 C)
Relative Humidity: 55%
Pressure (altimeter): 29.92 in. Hg (1013 hPa)
ob: KMOD 180653Z AUTO 36007KT 10SM CLR 23/13 A2992 RMK AO2 SLP131 T02280133
cycle: 7

Station Type Date Time Source
KMOD TAF 2020/09/18 06:49 UTC NOAA

TAF KMOD 180537Z 1806/1906 33008KT P6SM OVC250
FM182000 33006KT P6SM SCT250
FM190200 32012KT P6SM SKC

Example: see airport list